Decoded Metar for RPLL (MANILA in PHILIPPINES) (IATA:MNL) | Meteo·Mobile Aviation Weather
aviador You're here:

RPLL Decoded Metar

MANILA in PHILIPPINES
Report Time2019-07-22 15:00:00
UTC Time2019-07-22 15:59:16
Flight Rules vfr VFR
Wind230° at 05 kt
W.Decomp.*RWY 24: 4.9 kt HW 0.8 kt LCW
RWY 31: 1.0 kt HW 4.9 kt LCW
Visibility8000 m
Phenomena:Light Rain
Clouds:Scattered 020 Hf
Overcast 080 Hf
Expected CloudBase > 800 ft AGL from Temp-Dew spread
Ceiling8,000 ft
Temp27°C (ISA +12)
Dew Point25°C (89% RH)
Heat Index30.6°C
QNH1010 hPa
Density Alt1,985 ft
Elevation69 ft
Report Wrong Elevation
Raw Report
METAR RPLL 221500Z 23005KT 8000 -RA SCT020 OVC080 27/25 Q1010 NOSIG
RMK A2983=

Extra information for RPLL:More info

Metar Taf Metar & Taf Last 4 Metars F.Rules Stats Wind Profile Meteogram Temp Stats Airport Information Weather charts Add Link Nearby VenuesMetar ALERT Operation Metar Decoded Social comments